Schedule Details


Flight Number: CTN631
Departure: Zemunik (LDZD) at 06:55
Arrival: Franjo Tudman (LDZA) at 07:35
Route: ALANU L868 KULEN M986 KOTOR

Weather Information
LDZD 190930Z 15007KT 110V170 9999 FEW045 BKN070 12/M00 Q1020 NOSIG
LDZA 190930Z VRB02KT CAVOK 08/01 Q1022 NOSIG
Schedule Frequency

Route Map